ADDS METAR Data INFO
IDs: Format: Raw Decoded Include TAF

Data at: 2008 UTC 19 Oct 2017

K4I3 192007Z AUTO 23008KT 10SM CLR 23/10 A3018 RMK AO2
K4I3 191946Z AUTO 22007G15KT 180V250 10SM CLR 22/10 A3018 RMK AO2
K4I3 191927Z AUTO 22007G14KT 190V250 10SM CLR 22/10 A3018 RMK AO2
K4I3 191907Z AUTO 23009G15KT 10SM CLR 22/10 A3019 RMK AO2
K4I3 191846Z AUTO 22011G18KT 10SM CLR 22/10 A3019 RMK AO2
K4I3 191812Z AUTO 21007G15KT 10SM CLR 21/11 A3020 RMK AO2
K4I3 191746Z AUTO 21006KT 10SM CLR 21/11 A3021 RMK AO2
K4I3 191727Z AUTO 23008G16KT 10SM CLR 20/10 A3021 RMK AO2
K4I3 191707Z AUTO 22007KT 10SM CLR 20/10 A3021 RMK AO2
K4I3 191646Z AUTO 25009KT 10SM CLR 19/10 A3022 RMK AO2
K4I3 191627Z AUTO 22008KT 10SM CLR 19/10 A3022 RMK AO2
K4I3 191607Z AUTO 21008KT 180V240 10SM CLR 18/10 A3022 RMK AO2
K4I3 191546Z AUTO 22007G14KT 10SM CLR 17/09 A3022 RMK AO2
K4I3 191527Z AUTO 22010G14KT 10SM CLR 17/09 A3022 RMK AO2
K4I3 191507Z AUTO 22011G14KT 10SM CLR 16/09 A3023 RMK AO2
K4I3 191446Z AUTO 22009G14KT 10SM CLR 15/09 A3023 RMK AO2
K4I3 191427Z AUTO 23006KT 10SM CLR 15/09 A3023 RMK AO2
K4I3 191407Z AUTO 22006KT 10SM CLR 14/09 A3023 RMK AO2
K4I3 191347Z AUTO 22004KT 10SM CLR 13/09 A3022 RMK AO2
K4I3 191327Z AUTO 21004KT 10SM CLR 11/08 A3023 RMK AO2
K4I3 191306Z AUTO 20003KT 10SM CLR 10/08 A3022 RMK AO2
K4I3 191247Z AUTO 21003KT 10SM CLR 09/07 A3021 RMK AO2
K4I3 191227Z AUTO 21003KT 10SM CLR 08/07 A3020 RMK AO2
K4I3 191206Z AUTO 20003KT 10SM CLR 07/06 A3020 RMK AO2
K4I3 191147Z AUTO 00000KT 10SM CLR 07/06 A3021 RMK AO2
K4I3 191127Z AUTO 20003KT 10SM CLR 07/06 A3020 RMK AO2
K4I3 191106Z AUTO 19004KT 10SM CLR 08/06 A3020 RMK AO2
K4I3 191047Z AUTO 19003KT 10SM CLR 07/06 A3020 RMK AO2
K4I3 191027Z AUTO 17004KT 10SM CLR 08/06 A3020 RMK AO2
K4I3 191006Z AUTO 19004KT 10SM CLR 08/06 A3020 RMK AO2
K4I3 190947Z AUTO 19004KT 10SM CLR 07/06 A3021 RMK AO2
K4I3 190926Z AUTO 00000KT 10SM CLR 08/06 A3021 RMK AO2
K4I3 190907Z AUTO 21003KT 10SM CLR 08/06 A3020 RMK AO2
K4I3 190847Z AUTO 19004KT 10SM CLR 09/06 A3019 RMK AO2
K4I3 190826Z AUTO 00000KT 10SM CLR 09/06 A3020 RMK AO2
K4I3 190807Z AUTO 20003KT 10SM CLR 09/06 A3020 RMK AO2
K4I3 190747Z AUTO 20003KT 10SM CLR 09/06 A3020 RMK AO2
K4I3 190726Z AUTO 21003KT 10SM CLR 10/06 A3020 RMK AO2
K4I3 190707Z AUTO 22004KT 10SM CLR 10/06 A3021 RMK AO2
K4I3 190647Z AUTO 22004KT 10SM CLR 10/06 A3021 RMK AO2
K4I3 190626Z AUTO 23003KT 10SM CLR 10/06 A3021 RMK AO2
K4I3 190607Z AUTO 22003KT 10SM CLR 10/06 A3021 RMK AO2
K4I3 190547Z AUTO 22004KT 10SM CLR 10/06 A3020 RMK AO2
K4I3 190527Z AUTO 22003KT 10SM CLR 11/06 A3020 RMK AO2
K4I3 190507Z AUTO 22004KT 10SM CLR 11/06 A3020 RMK AO2
K4I3 190446Z AUTO 21004KT 10SM CLR 11/06 A3020 RMK AO2
K4I3 190427Z AUTO 20004KT 10SM CLR 11/06 A3020 RMK AO2
K4I3 190407Z AUTO 20004KT 10SM CLR 11/06 A3020 RMK AO2
K4I3 190346Z AUTO 20004KT 10SM CLR 11/06 A3021 RMK AO2
K4I3 190327Z AUTO 19004KT 10SM CLR 11/06 A3021 RMK AO2
K4I3 190307Z AUTO 19005KT 10SM CLR 11/05 A3021 RMK AO2
K4I3 190246Z AUTO 20005KT 10SM CLR 12/05 A3021 RMK AO2
K4I3 190227Z AUTO 20005KT 10SM CLR 12/05 A3021 RMK AO2
K4I3 190207Z AUTO 18003KT 10SM CLR 12/05 A3021 RMK AO2
K4I3 190146Z AUTO 19004KT 10SM CLR 13/05 A3021 RMK AO2
K4I3 190127Z AUTO 18004KT 10SM CLR 13/05 A3022 RMK AO2
K4I3 190106Z AUTO 19004KT 10SM CLR 13/05 A3023 RMK AO2
K4I3 190047Z AUTO 19003KT 10SM CLR 14/05 A3023 RMK AO2
K4I3 190027Z AUTO 17004KT 10SM CLR 14/05 A3023 RMK AO2
K4I3 190006Z AUTO 18004KT 10SM CLR 15/05 A3023 RMK AO2
K4I3 182347Z AUTO 18004KT 10SM CLR 15/05 A3023 RMK AO2
K4I3 182327Z AUTO 18003KT 10SM CLR 16/04 A3023 RMK AO2
K4I3 182306Z AUTO 20004KT 10SM CLR 17/04 A3023 RMK AO2
K4I3 182247Z AUTO 19005KT 10SM CLR 17/04 A3022 RMK AO2
K4I3 182227Z AUTO 18005KT 10SM CLR 18/04 A3022 RMK AO2
K4I3 182206Z AUTO 19006KT 10SM CLR 19/04 A3022 RMK AO2
K4I3 182147Z AUTO 17006KT 10SM CLR 20/04 A3022 RMK AO2
K4I3 182126Z AUTO 19007KT 10SM CLR 20/04 A3023 RMK AO2
K4I3 182106Z AUTO 19008KT 10SM CLR 20/04 A3024 RMK AO2
K4I3 182047Z AUTO 18007KT 10SM CLR 20/05 A3024 RMK AO2
K4I3 182026Z AUTO 21004KT 10SM CLR 21/05 A3024 RMK AO2
K4I3 182007Z AUTO 17008KT 10SM CLR 20/05 A3025 RMK AO2
K4I3 181947Z AUTO 19009KT 10SM CLR 20/05 A3025 RMK AO2
K4I3 181926Z AUTO 20008G14KT 10SM CLR 21/05 A3025 RMK AO2
K4I3 181907Z AUTO 15009KT 10SM CLR 20/06 A3026 RMK AO2
K4I3 181847Z AUTO 15010KT 10SM CLR 20/07 A3027 RMK AO2
K4I3 181826Z AUTO 15009KT 10SM CLR 20/06 A3028 RMK AO2
K4I3 181807Z AUTO 19008KT 10SM CLR 19/06 A3029 RMK AO2
K4I3 181746Z AUTO 19007KT 10SM CLR 19/07 A3030 RMK AO2
K4I3 181726Z AUTO 18009KT 10SM CLR 19/07 A3031 RMK AO2
K4I3 181707Z AUTO 19007KT 10SM CLR 19/07 A3032 RMK AO2
K4I3 181646Z AUTO 16008KT 10SM CLR 18/06 A3033 RMK AO2
K4I3 181627Z AUTO 21006KT 10SM CLR 18/07 A3033 RMK AO2
K4I3 181607Z AUTO 20008KT 10SM CLR 17/06 A3034 RMK AO2
K4I3 181546Z AUTO 19006KT 10SM CLR 17/08 A3034 RMK AO2
K4I3 181527Z AUTO 20004KT 10SM CLR 16/07 A3034 RMK AO2
K4I3 181507Z AUTO 20004KT 10SM CLR 15/08 A3034 RMK AO2
K4I3 181446Z AUTO 17004KT 10SM CLR 14/08 A3035 RMK AO2
K4I3 181427Z AUTO 17003KT 10SM CLR 13/08 A3035 RMK AO2
K4I3 181407Z AUTO 00000KT 10SM CLR 11/08 A3035 RMK AO2
K4I3 181346Z AUTO 00000KT 10SM CLR 10/07 A3034 RMK AO2
K4I3 181327Z AUTO 00000KT 10SM CLR 09/07 A3035 RMK AO2
K4I3 181306Z AUTO 00000KT 10SM CLR 08/06 A3034 RMK AO2
K4I3 181247Z AUTO 00000KT 10SM CLR 07/05 A3034 RMK AO2
K4I3 181227Z AUTO 00000KT 10SM CLR 06/05 A3033 RMK AO2
K4I3 181206Z AUTO 00000KT 10SM CLR 06/04 A3032 RMK AO2
K4I3 181147Z AUTO 00000KT 10SM CLR 05/04 A3032 RMK AO2
K4I3 181126Z AUTO 24003KT 10SM CLR 05/04 A3032 RMK AO2
K4I3 181106Z AUTO 00000KT 10SM CLR 07/05 A3032 RMK AO2
K4I3 181047Z AUTO 00000KT 10SM CLR 07/05 A3032 RMK AO2
K4I3 181027Z AUTO 00000KT 10SM CLR 07/05 A3031 RMK AO2
K4I3 181006Z AUTO 25003KT 10SM CLR 06/04 A3031 RMK AO2
K4I3 180947Z AUTO 00000KT 10SM CLR 06/05 A3031 RMK AO2
K4I3 180926Z AUTO 00000KT 10SM CLR 06/05 A3030 RMK AO2
K4I3 180907Z AUTO 24003KT 10SM CLR 06/05 A3030 RMK AO2
K4I3 180847Z AUTO 24003KT 10SM CLR 06/05 A3030 RMK AO2
K4I3 180826Z AUTO 00000KT 10SM CLR 07/05 A3030 RMK AO2